Time;durP1;ratioP1;P1;durP2;ratioP2;P2;SDS_P1;SDS_P2;PMS_P1;PMS_P2;Temp;Humidity;BMP_temperature;BMP_pressure;BME280_temperature;BME280_humidity;BME280_pressure;Samples;Min_cycle;Max_cycle;Signal;HPM_P1;HPM_P2
2023/08/19 00:00:16;;;;;;;;;17.00;17.00;;;;;27.88;63.02;100532.75;5016360;28;45445;-77
2023/08/19 00:02:42;;;;;;;;;16.00;16.00;;;;;27.80;63.20;100528.56;5016503;28;45289;-71
2023/08/19 00:05:07;;;;;;;;;19.00;19.00;;;;;27.75;63.01;100516.81;5016009;28;46301;-71
2023/08/19 00:07:33;;;;;;;;;23.33;20.33;;;;;27.77;63.64;100539.22;5015986;28;45281;-71
2023/08/19 00:10:01;;;;;;;;;21.00;20.33;;;;;27.91;63.47;100548.59;5016157;28;45252;-71
2023/08/19 00:12:27;;;;;;;;;16.33;15.67;;;;;27.92;62.74;100558.44;5016379;28;45562;-71
2023/08/19 00:14:54;;;;;;;;;21.67;20.00;;;;;27.65;63.21;100508.56;5015593;28;47817;-70
2023/08/19 00:17:20;;;;;;;;;19.33;18.67;;;;;27.87;63.17;100548.31;5018081;28;45301;-70
2023/08/19 00:19:45;;;;;;;;;19.00;17.67;;;;;27.77;63.53;100545.50;5019637;28;45623;-71
2023/08/19 00:22:10;;;;;;;;;22.33;22.33;;;;;27.80;63.13;100552.34;5001685;28;45227;-71
2023/08/19 00:24:35;;;;;;;;;18.67;18.67;;;;;27.74;63.18;100547.94;5019039;28;47220;-71
2023/08/19 00:27:01;;;;;;;;;20.33;19.33;;;;;27.82;63.56;100561.09;5019049;28;53928;-71
2023/08/19 00:29:27;;;;;;;;;22.67;19.33;;;;;27.83;63.36;100574.53;5019325;28;45299;-72
2023/08/19 00:31:52;;;;;;;;;21.33;21.00;;;;;27.82;63.54;100583.78;5019220;28;45453;-70
2023/08/19 00:34:17;;;;;;;;;17.00;17.00;;;;;27.82;63.57;100580.22;5018649;28;59449;-72
2023/08/19 00:36:43;;;;;;;;;20.67;20.67;;;;;27.79;63.38;100584.31;5019203;28;45202;-70
2023/08/19 00:39:09;;;;;;;;;20.67;19.33;;;;;27.71;63.91;100573.06;5019046;28;45366;-71
2023/08/19 00:41:34;;;;;;;;;22.00;19.67;;;;;27.72;63.90;100586.44;5019403;28;45439;-71
2023/08/19 00:43:59;;;;;;;;;19.33;18.67;;;;;27.61;63.96;100567.47;5018865;28;46495;-70
2023/08/19 00:46:26;;;;;;;;;18.67;18.67;;;;;27.70;63.71;100579.59;5018713;28;45433;-70
2023/08/19 00:48:51;;;;;;;;;23.00;22.00;;;;;27.68;64.17;100582.59;5001250;28;45429;-70
2023/08/19 00:51:17;;;;;;;;;20.00;19.00;;;;;27.63;64.35;100568.88;5018990;28;45470;-71
2023/08/19 00:53:43;;;;;;;;;20.67;20.67;;;;;27.65;63.95;100574.09;5018659;28;45407;-71
2023/08/19 00:56:10;;;;;;;;;21.00;19.67;;;;;27.34;64.30;100521.09;5000862;28;45460;-71
2023/08/19 00:58:35;;;;;;;;;19.67;19.67;;;;;27.59;64.13;100575.91;5018842;28;45365;-69
2023/08/19 01:01:01;;;;;;;;;18.00;18.00;;;;;27.56;63.93;100562.78;5000903;28;45171;-71
2023/08/19 01:03:26;;;;;;;;;19.67;19.67;;;;;27.57;63.85;100565.25;5018608;28;45540;-70
2023/08/19 01:06:08;;;;;;;;;19.00;19.00;;;;;27.58;63.93;100583.28;5018452;28;50226;-71
2023/08/19 01:08:42;;;;;;;;;16.33;16.00;;;;;27.57;64.09;100576.19;5018890;28;45491;-69
2023/08/19 01:11:51;;;;;;;;;22.00;22.00;;;;;27.48;64.04;100566.84;5018825;28;45506;-70
2023/08/19 01:14:46;;;;;;;;;21.33;19.67;;;;;27.55;63.47;100581.09;5018258;28;46492;-72
2023/08/19 01:17:14;;;;;;;;;15.67;15.33;;;;;27.22;63.59;100529.44;5018060;28;45506;-71
2023/08/19 01:19:41;;;;;;;;;21.33;18.33;;;;;27.50;63.95;100581.03;5018395;28;45284;-70
2023/08/19 01:22:09;;;;;;;;;17.33;15.33;;;;;27.50;64.06;100580.22;5018597;28;45458;-70
2023/08/19 01:24:35;;;;;;;;;19.00;17.00;;;;;27.54;63.79;100587.63;5018189;28;45934;-70
2023/08/19 01:27:02;;;;;;;;;22.67;19.67;;;;;27.46;63.25;100585.38;5018065;28;45206;-70
2023/08/19 01:29:28;;;;;;;;;18.67;15.33;;;;;27.55;63.77;100596.66;5018499;28;45510;-70
2023/08/19 01:31:53;;;;;;;;;18.67;17.33;;;;;27.55;63.36;100602.94;5018291;28;45642;-70
2023/08/19 01:34:19;;;;;;;;;19.33;19.33;;;;;27.53;63.49;100605.09;5018065;28;46889;-70
2023/08/19 01:36:52;;;;;;;;;18.00;18.00;;;;;27.53;63.44;100613.28;5018144;28;45423;-70
2023/08/19 01:39:21;;;;;;;;;20.67;17.67;;;;;27.39;63.49;100598.41;5018237;28;45317;-70
2023/08/19 01:41:48;;;;;;;;;20.67;20.67;;;;;27.38;63.48;100599.50;5018215;28;45326;-71
2023/08/19 01:44:13;;;;;;;;;16.67;16.67;;;;;27.51;63.37;100620.91;5000033;28;47828;-69
2023/08/19 01:46:39;;;;;;;;;16.75;15.75;;;;;27.42;63.86;100616.16;5017607;28;45577;-70
2023/08/19 01:49:04;;;;;;;;;18.67;18.67;;;;;27.43;63.93;100613.22;5018143;28;45305;-69
2023/08/19 01:51:30;;;;;;;;;20.33;19.67;;;;;27.39;63.58;100617.53;5033377;28;45418;-70
2023/08/19 01:53:56;;;;;;;;;21.00;17.67;;;;;27.48;63.94;100626.09;5017762;28;45596;-69
2023/08/19 01:56:21;;;;;;;;;19.67;19.67;;;;;27.46;62.92;100618.16;5017606;28;45328;-71
2023/08/19 01:58:46;;;;;;;;;16.33;16.33;;;;;27.13;63.06;100575.50;5017968;28;45224;-69
2023/08/19 02:01:13;;;;;;;;;20.67;19.67;;;;;27.42;62.24;100625.19;5017583;28;45206;-68
2023/08/19 02:03:38;;;;;;;;;15.67;15.67;;;;;27.20;61.15;100588.94;5017701;28;47104;-69
2023/08/19 02:06:03;;;;;;;;;18.67;17.00;;;;;27.42;61.14;100618.91;4999499;28;45916;-69
2023/08/19 02:08:29;;;;;;;;;15.00;14.00;;;;;27.43;60.99;100629.59;5017829;28;45445;-69
2023/08/19 02:10:54;;;;;;;;;14.67;12.33;;;;;27.12;60.62;100573.03;5017899;28;45531;-70
2023/08/19 02:13:19;;;;;;;;;17.33;14.67;;;;;27.29;60.60;100611.97;4999576;28;48700;-69
2023/08/19 02:15:45;;;;;;;;;13.33;12.33;;;;;27.45;60.00;100643.81;5016471;28;56097;-71
2023/08/19 02:18:10;;;;;;;;;15.67;15.33;;;;;27.45;59.78;100638.34;5017710;28;45431;-70
2023/08/19 02:20:36;;;;;;;;;14.50;13.00;;;;;27.42;59.28;100636.09;5032679;28;45432;-70
2023/08/19 02:23:02;;;;;;;;;15.67;14.00;;;;;27.41;58.89;100634.47;4999419;28;47341;-70
2023/08/19 02:25:27;;;;;;;;;14.33;13.67;;;;;27.42;58.70;100641.56;4999612;28;45297;-70
2023/08/19 02:27:53;;;;;;;;;12.33;12.33;;;;;27.34;58.77;100631.13;5017483;28;45526;-70
2023/08/19 02:30:18;;;;;;;;;15.33;13.67;;;;;27.13;58.82;100600.06;5032330;28;45423;-72
2023/08/19 02:32:43;;;;;;;;;14.00;13.33;;;;;27.31;58.35;100637.09;5016977;28;45533;-71
2023/08/19 02:35:10;;;;;;;;;14.00;14.00;;;;;27.32;57.94;100637.94;5017414;28;45477;-70
2023/08/19 02:37:36;;;;;;;;;11.67;11.67;;;;;27.26;58.39;100637.06;4999474;28;45406;-71
2023/08/19 02:40:03;;;;;;;;;11.67;10.00;;;;;27.36;57.86;100660.91;4998722;28;45527;-70
2023/08/19 02:42:28;;;;;;;;;15.00;13.33;;;;;27.23;58.31;100643.00;5016935;28;46252;-70
2023/08/19 02:44:54;;;;;;;;;12.00;11.33;;;;;27.26;58.18;100658.91;5017175;28;45507;-69
2023/08/19 02:47:19;;;;;;;;;16.67;15.00;;;;;27.26;58.55;100647.97;5017015;28;45351;-69
2023/08/19 02:49:44;;;;;;;;;11.50;11.50;;;;;27.31;58.42;100658.94;5017174;28;45539;-69
2023/08/19 02:52:10;;;;;;;;;16.67;13.33;;;;;27.25;58.00;100660.81;5016967;28;45973;-69
2023/08/19 02:54:35;;;;;;;;;12.00;11.00;;;;;27.25;58.48;100670.91;5016810;28;49204;-70
2023/08/19 02:57:00;;;;;;;;;14.00;13.67;;;;;27.24;57.79;100672.81;5017041;28;45431;-70
2023/08/19 02:59:26;;;;;;;;;14.00;14.00;;;;;27.26;58.12;100675.28;5017258;28;45315;-69
2023/08/19 03:01:51;;;;;;;;;17.67;13.00;;;;;27.28;58.44;100686.75;5031788;28;48640;-70
2023/08/19 03:04:16;;;;;;;;;14.67;13.00;;;;;27.20;58.33;100674.38;5017101;28;45474;-70
2023/08/19 03:06:42;;;;;;;;;14.67;12.67;;;;;27.25;58.17;100687.28;5016939;28;45311;-71
2023/08/19 03:09:08;;;;;;;;;12.00;12.00;;;;;27.22;58.31;100682.31;5017137;28;45319;-72
2023/08/19 03:11:33;;;;;;;;;12.33;12.00;;;;;27.16;58.28;100677.88;5016492;28;45339;-69
2023/08/19 03:13:59;;;;;;;;;16.25;16.25;;;;;27.17;58.05;100679.53;5016663;28;45249;-68
2023/08/19 03:16:24;;;;;;;;;16.25;14.50;;;;;27.17;58.60;100677.63;5016621;28;45499;-69
2023/08/19 03:18:49;;;;;;;;;11.50;11.50;;;;;27.13;58.77;100675.66;5016703;28;45470;-70
2023/08/19 03:21:15;;;;;;;;;14.00;13.33;;;;;27.20;58.64;100693.47;5016530;28;46811;-69
2023/08/19 03:23:40;;;;;;;;;12.33;12.33;;;;;27.10;58.80;100676.16;5016468;28;45183;-71
2023/08/19 03:26:05;;;;;;;;;16.75;14.75;;;;;27.16;57.98;100699.72;5016632;28;45586;-70
2023/08/19 03:28:31;;;;;;;;;13.67;13.67;;;;;27.11;58.34;100691.47;5016940;28;45491;-71
2023/08/19 03:30:56;;;;;;;;;11.33;11.33;;;;;27.08;57.91;100691.97;5015910;28;53580;-70
2023/08/19 03:33:21;;;;;;;;;16.67;13.67;;;;;27.14;57.56;100707.31;5016458;28;45609;-69
2023/08/19 03:35:47;;;;;;;;;12.50;12.50;;;;;26.89;57.84;100664.97;5016872;28;45281;-70
2023/08/19 03:38:13;;;;;;;;;13.00;11.50;;;;;27.15;57.83;100708.97;4999090;28;45468;-70
2023/08/19 03:40:39;;;;;;;;;10.33;10.33;;;;;27.06;57.41;100711.34;5016750;28;45585;-70
2023/08/19 03:43:04;;;;;;;;;12.75;11.50;;;;;27.12;57.42;100717.69;5016280;28;45493;-70
2023/08/19 03:45:32;;;;;;;;;15.00;14.33;;;;;26.74;57.51;100656.59;5016171;28;45455;-69
2023/08/19 03:47:58;;;;;;;;;13.00;13.00;;;;;27.13;57.55;100717.41;5016810;28;45284;-71
2023/08/19 03:50:23;;;;;;;;;17.67;14.33;;;;;27.07;57.25;100718.44;5016040;28;45308;-70
2023/08/19 03:52:48;;;;;;;;;11.33;11.33;;;;;27.09;56.87;100729.09;5001688;28;46214;-70
2023/08/19 03:55:14;;;;;;;;;12.25;11.25;;;;;27.04;57.20;100723.59;5019810;28;45397;-70
2023/08/19 03:57:39;;;;;;;;;12.33;11.33;;;;;26.91;55.96;100713.81;5001925;28;45527;-70
2023/08/19 04:00:06;;;;;;;;;9.50;9.25;;;;;27.05;55.65;100747.91;5019837;28;46424;-70
2023/08/19 04:02:31;;;;;;;;;14.75;12.00;;;;;26.66;55.90;100687.03;5019296;28;45382;-70
2023/08/19 04:05:02;;;;;;;;;12.00;11.67;;;;;26.96;55.21;100744.72;5001653;28;45420;-69
2023/08/19 04:07:28;;;;;;;;;9.50;9.50;;;;;26.91;55.34;100750.13;5019514;28;45560;-69
2023/08/19 04:09:55;;;;;;;;;9.75;9.75;;;;;26.92;55.74;100759.13;5019270;28;46663;-70
2023/08/19 04:12:21;;;;;;;;;12.25;10.00;;;;;26.81;55.23;100741.78;5019321;28;45306;-70
2023/08/19 04:14:46;;;;;;;;;13.75;11.75;;;;;26.93;55.64;100766.25;5019193;28;45495;-70
2023/08/19 04:17:12;;;;;;;;;13.75;12.75;;;;;26.92;55.80;100773.59;5001389;28;45501;-69
2023/08/19 04:19:38;;;;;;;;;11.75;10.75;;;;;26.92;55.74;100780.97;5019176;28;45339;-70
2023/08/19 04:22:03;;;;;;;;;9.50;9.50;;;;;26.88;55.36;100772.44;5018945;28;45277;-70
2023/08/19 04:24:28;;;;;;;;;10.25;10.25;;;;;26.88;55.40;100774.34;5019401;28;45405;-70
2023/08/19 04:26:54;;;;;;;;;14.00;11.00;;;;;26.40;55.24;100712.25;5019588;28;45320;-69
2023/08/19 04:29:19;;;;;;;;;10.50;8.75;;;;;26.89;55.28;100795.94;5019274;28;46537;-72
2023/08/19 04:31:44;;;;;;;;;11.00;9.50;;;;;26.77;55.44;100778.81;5000652;28;45302;-70
2023/08/19 04:34:09;;;;;;;;;8.25;8.25;;;;;26.51;55.57;100742.16;5019284;28;45394;-70
2023/08/19 04:36:35;;;;;;;;;14.75;12.50;;;;;26.84;55.80;100804.03;5018779;28;47796;-70
2023/08/19 04:39:00;;;;;;;;;11.00;10.50;;;;;26.59;55.62;100776.38;5018575;28;57856;-69
2023/08/19 04:41:25;;;;;;;;;9.00;9.00;;;;;26.84;55.05;100816.88;5018354;28;57744;-70
2023/08/19 04:43:51;;;;;;;;;8.25;8.25;;;;;26.47;55.05;100759.28;5019017;28;45699;-71
2023/08/19 04:46:16;;;;;;;;;11.25;11.25;;;;;26.54;55.29;100781.75;5018973;28;45485;-69
2023/08/19 04:48:41;;;;;;;;;9.50;9.50;;;;;26.44;54.89;100767.97;5018658;28;46565;-69
2023/08/19 04:51:07;;;;;;;;;8.75;8.75;;;;;26.42;54.70;100770.91;5034108;28;45331;-69
2023/08/19 04:53:32;;;;;;;;;12.00;9.00;;;;;26.76;55.11;100829.00;5000938;28;45411;-72
2023/08/19 04:56:02;;;;;;;;;9.00;8.00;;;;;26.63;55.27;100823.88;5018929;28;45356;-70
2023/08/19 04:58:28;;;;;;;;;10.50;9.25;;;;;26.64;54.87;100822.81;5018635;28;46843;-69
2023/08/19 05:00:53;;;;;;;;;10.00;9.00;;;;;26.72;54.64;100846.94;5018196;28;45265;-70
2023/08/19 05:03:18;;;;;;;;;7.75;7.75;;;;;26.67;54.73;100847.69;5018350;28;45522;-69
2023/08/19 05:05:44;;;;;;;;;8.50;8.50;;;;;26.58;54.61;100831.97;5018868;28;45371;-69
2023/08/19 05:08:10;;;;;;;;;7.25;7.25;;;;;26.56;54.47;100834.13;5018550;28;46577;-69
2023/08/19 05:10:36;;;;;;;;;9.00;9.00;;;;;26.58;54.71;100848.34;5000674;28;45708;-69
2023/08/19 05:13:01;;;;;;;;;6.25;6.25;;;;;26.40;54.75;100824.03;5018604;28;45276;-70
2023/08/19 05:15:27;;;;;;;;;4.00;4.00;;;;;26.51;54.92;100844.97;5018349;28;45570;-70
2023/08/19 05:17:52;;;;;;;;;6.00;5.50;;;;;26.46;54.77;100847.59;5018435;28;46066;-70
2023/08/19 05:20:18;;;;;;;;;4.50;4.25;;;;;26.24;54.25;100807.41;5000422;28;45476;-70
2023/08/19 05:22:43;;;;;;;;;6.00;6.00;;;;;26.53;54.63;100857.25;5018519;28;45302;-71
2023/08/19 05:25:09;;;;;;;;;8.25;7.25;;;;;26.54;54.33;100872.56;5018361;28;45297;-70
2023/08/19 05:27:34;;;;;;;;;8.25;7.00;;;;;26.47;54.56;100858.25;5018159;28;45241;-70
2023/08/19 05:30:00;;;;;;;;;7.00;6.25;;;;;26.52;54.75;100857.50;5018287;28;45415;-70
2023/08/19 05:32:25;;;;;;;;;7.75;5.75;;;;;26.19;54.48;100814.63;5018277;28;45238;-70
2023/08/19 05:34:50;;;;;;;;;6.00;6.00;;;;;26.54;54.54;100877.19;5000348;28;45261;-70
2023/08/19 05:37:16;;;;;;;;;7.67;7.67;;;;;26.24;53.98;100831.94;5000101;28;48374;-71
2023/08/19 05:39:41;;;;;;;;;6.50;6.50;;;;;26.54;54.21;100879.91;5017771;28;50183;-71
2023/08/19 05:42:06;;;;;;;;;9.00;6.75;;;;;26.54;54.47;100883.47;5018353;28;45187;-71
2023/08/19 05:44:32;;;;;;;;;3.75;3.75;;;;;26.43;54.04;100880.78;5018242;28;45548;-70
2023/08/19 05:46:57;;;;;;;;;5.50;5.50;;;;;26.46;54.04;100883.88;5017709;28;45997;-73
2023/08/19 05:49:22;;;;;;;;;10.75;9.00;;;;;26.52;53.99;100890.22;5017677;28;45388;-71
2023/08/19 05:51:48;;;;;;;;;8.00;7.00;;;;;26.40;53.85;100878.56;5018061;28;45400;-72
2023/08/19 05:54:13;;;;;;;;;7.25;6.25;;;;;26.55;54.23;100904.19;5033598;28;45308;-72
2023/08/19 05:56:39;;;;;;;;;5.75;5.75;;;;;26.50;54.53;100889.66;4999908;28;46752;-70
2023/08/19 05:59:04;;;;;;;;;7.00;6.00;;;;;26.59;54.37;100907.25;5018042;28;45428;-69
2023/08/19 06:01:29;;;;;;;;;5.50;5.00;;;;;26.60;54.15;100900.72;5017832;28;45365;-70
2023/08/19 06:03:55;;;;;;;;;6.50;6.50;;;;;26.56;53.91;100902.28;5018211;28;45589;-71
2023/08/19 06:06:20;;;;;;;;;5.75;5.75;;;;;26.54;54.17;100896.25;5017492;28;51275;-70
2023/08/19 06:08:45;;;;;;;;;8.50;6.00;;;;;26.56;54.24;100899.56;4999591;28;45399;-71
2023/08/19 06:11:11;;;;;;;;;6.00;6.00;;;;;26.34;54.21;100873.00;5000011;28;45421;-70
2023/08/19 06:13:37;;;;;;;;;5.00;5.00;;;;;26.63;54.37;100913.88;5016865;28;45588;-71
2023/08/19 06:16:04;;;;;;;;;8.25;6.50;;;;;26.67;54.27;100912.31;5016855;28;45830;-70
2023/08/19 06:18:43;;;;;;;;;5.00;3.75;;;;;26.58;54.03;100908.31;5135462;27;45384;-71
2023/08/19 06:21:08;;;;;;;;;6.00;6.00;;;;;26.63;53.85;100931.09;5130702;27;45517;-71
2023/08/19 06:23:33;;;;;;;;;5.25;5.25;;;;;26.35;53.51;100895.66;5115033;27;45483;-70
2023/08/19 06:25:59;;;;;;;;;6.00;6.00;;;;;26.63;53.45;100941.13;5114961;27;45393;-70
2023/08/19 06:28:24;;;;;;;;;5.50;3.50;;;;;26.69;53.55;100945.63;5114469;27;45665;-71
2023/08/19 06:30:50;;;;;;;;;4.50;4.50;;;;;26.63;53.52;100938.41;5114617;27;45384;-69
2023/08/19 06:33:17;;;;;;;;;6.00;6.00;;;;;26.60;53.16;100939.72;5114857;27;45356;-70
2023/08/19 06:35:49;;;;;;;;;8.50;6.25;;;;;26.70;53.72;100963.66;5115110;27;45650;-70
2023/08/19 06:38:20;;;;;;;;;5.50;5.50;;;;;26.71;53.26;100972.66;5114529;27;46046;-69
2023/08/19 06:41:07;;;;;;;;;6.50;5.00;;;;;26.70;52.88;100990.91;5114667;27;45419;-71
2023/08/19 06:43:33;;;;;;;;;4.00;4.00;;;;;26.66;53.04;100976.13;5113101;27;45331;-70
2023/08/19 06:46:00;;;;;;;;;4.50;4.00;;;;;26.43;53.34;100946.22;5114287;27;45834;-71
2023/08/19 06:48:26;;;;;;;;;7.50;6.00;;;;;26.63;53.10;100987.50;5114069;27;45251;-70
2023/08/19 06:50:54;;;;;;;;;4.00;4.00;;;;;26.61;53.42;100987.75;5114342;27;45303;-70
2023/08/19 06:53:20;;;;;;;;;5.00;5.00;;;;;26.59;52.88;100981.72;5114323;27;45456;-70
2023/08/19 06:56:07;;;;;;;;;5.25;5.25;;;;;26.65;53.45;100993.56;5114472;27;45259;-70
2023/08/19 06:58:37;;;;;;;;;5.25;5.25;;;;;26.61;53.17;100981.47;5112435;27;47502;-70
2023/08/19 07:01:12;;;;;;;;;5.00;5.00;;;;;26.69;52.71;101005.63;5113774;27;45528;-70
2023/08/19 07:03:38;;;;;;;;;9.25;6.50;;;;;26.70;53.10;101001.84;5114084;27;45226;-69
2023/08/19 07:06:04;;;;;;;;;8.00;7.00;;;;;26.57;53.02;100993.94;5114015;27;45600;-69
2023/08/19 07:08:30;;;;;;;;;8.50;8.25;;;;;26.64;53.34;101003.66;5113646;27;46880;-69
2023/08/19 07:11:02;;;;;;;;;5.00;3.00;;;;;26.59;53.60;101022.63;5113819;27;45468;-71
2023/08/19 07:13:28;;;;;;;;;5.00;5.00;;;;;26.47;53.54;101010.13;5113885;27;45418;-70
2023/08/19 07:16:00;;;;;;;;;6.00;5.75;;;;;26.50;53.79;101007.72;5113916;27;45323;-71
2023/08/19 07:18:27;;;;;;;;;5.25;5.25;;;;;26.43;53.85;101014.38;5113407;27;46760;-71
2023/08/19 07:20:56;;;;;;;;;6.00;6.00;;;;;26.41;53.99;100997.44;5113661;27;45322;-70
2023/08/19 07:23:23;;;;;;;;;4.00;4.00;;;;;26.46;54.40;100994.81;5113720;27;45280;-70
2023/08/19 07:25:50;;;;;;;;;4.00;4.00;;;;;26.40;53.98;100979.41;5113878;27;45383;-71
2023/08/19 07:28:17;;;;;;;;;4.00;4.00;;;;;26.48;54.28;100989.97;5110250;27;46659;-71
2023/08/19 07:30:43;;;;;;;;;5.25;4.25;;;;;26.53;53.92;101017.31;5099475;27;45413;-70
2023/08/19 07:33:10;;;;;;;;;4.75;4.75;;;;;26.55;53.90;101020.63;5099936;27;45263;-71
2023/08/19 07:35:35;;;;;;;;;5.00;5.00;;;;;26.55;53.76;101020.63;5099807;27;45623;-70
2023/08/19 07:38:01;;;;;;;;;3.75;3.75;;;;;26.70;53.73;101045.47;5099564;27;46854;-70
2023/08/19 07:40:26;;;;;;;;;6.50;4.00;;;;;26.74;53.14;101046.63;5099518;27;45422;-71
2023/08/19 07:42:52;;;;;;;;;4.00;4.00;;;;;26.81;52.94;101066.41;5099784;27;45287;-70
2023/08/19 07:45:17;;;;;;;;;2.00;2.00;;;;;26.49;52.91;101016.16;5110575;27;45551;-69
2023/08/19 07:47:42;;;;;;;;;3.25;3.25;;;;;26.73;52.99;101055.06;5099330;27;47110;-70
2023/08/19 07:50:08;;;;;;;;;4.00;4.00;;;;;26.47;53.23;100985.56;5098764;27;56849;-70
2023/08/19 07:52:33;;;;;;;;;3.75;3.00;;;;;26.54;52.84;101005.34;5099727;27;45358;-70
2023/08/19 07:54:59;;;;;;;;;4.00;4.00;;;;;26.73;52.82;101055.91;5101409;27;45398;-71
2023/08/19 07:57:24;;;;;;;;;2.00;2.00;;;;;26.75;52.98;101077.47;5101626;27;45583;-69
2023/08/19 07:59:49;;;;;;;;;4.50;3.50;;;;;26.68;53.34;101099.44;5097778;27;45414;-69
2023/08/19 08:02:14;;;;;;;;;2.00;2.00;;;;;26.64;53.60;101114.63;5099281;27;45596;-69
2023/08/19 08:04:40;;;;;;;;;4.00;2.50;;;;;26.55;54.83;101113.34;5098275;27;45326;-71
2023/08/19 08:07:06;;;;;;;;;5.50;4.25;;;;;26.58;55.95;101134.66;5097557;27;46564;-70
2023/08/19 08:09:32;;;;;;;;;3.50;3.50;;;;;26.42;55.66;101119.88;5099095;27;45431;-70
2023/08/19 08:11:57;;;;;;;;;4.00;4.00;;;;;26.30;56.50;101122.59;5103187;27;45511;-70
2023/08/19 08:14:23;;;;;;;;;3.00;3.00;;;;;26.19;55.91;101131.59;5103353;27;45653;-71
2023/08/19 08:16:48;;;;;;;;;4.75;3.75;;;;;26.05;56.78;101150.13;5105476;27;47477;-70
2023/08/19 08:19:14;;;;;;;;;5.00;4.50;;;;;26.10;57.14;101184.81;5118276;27;45379;-70
2023/08/19 08:21:39;;;;;;;;;6.75;6.75;;;;;26.16;57.06;101211.13;5119629;27;45296;-70
2023/08/19 08:24:04;;;;;;;;;3.50;3.50;;;;;26.14;56.66;101205.06;5118110;27;45277;-71
2023/08/19 08:26:30;;;;;;;;;2.50;2.50;;;;;26.11;57.63;101186.47;5119432;27;45305;-69
2023/08/19 08:28:55;;;;;;;;;4.00;4.00;;;;;26.02;57.90;101160.63;5119615;27;45351;-69
2023/08/19 08:31:20;;;;;;;;;3.75;3.75;;;;;26.02;59.12;101171.53;5115779;27;45293;-69
2023/08/19 08:33:46;;;;;;;;;4.00;4.00;;;;;26.07;59.23;101177.94;5098978;27;45468;-69
2023/08/19 08:36:11;;;;;;;;;4.00;4.00;;;;;26.01;58.86;101156.25;5117200;27;47682;-69
2023/08/19 08:38:36;;;;;;;;;5.75;5.75;;;;;25.95;58.99;101149.03;5118863;27;45473;-70
2023/08/19 08:41:03;;;;;;;;;3.75;3.75;;;;;25.90;59.24;101167.97;5118174;27;45311;-70
2023/08/19 08:43:33;;;;;;;;;4.00;4.00;;;;;25.84;59.67;101174.38;5114289;27;45439;-71
2023/08/19 08:46:00;;;;;;;;;4.50;4.25;;;;;25.76;60.12;101154.56;5118999;27;46446;-72
2023/08/19 08:48:31;;;;;;;;;5.25;3.50;;;;;25.66;60.12;101142.56;5119223;27;45563;-69
2023/08/19 08:50:57;;;;;;;;;4.00;3.50;;;;;25.82;60.66;101188.19;5119118;27;45277;-70
2023/08/19 08:53:25;;;;;;;;;5.00;4.00;;;;;25.86;61.33;101205.75;5100792;27;45390;-70
2023/08/19 08:55:53;;;;;;;;;4.00;4.00;;;;;25.92;61.09;101223.06;5099479;27;46433;-70
2023/08/19 08:58:18;;;;;;;;;6.00;5.00;;;;;25.92;60.60;101201.25;5096709;27;45403;-70
2023/08/19 09:00:45;;;;;;;;;5.50;4.75;;;;;25.91;60.83;101164.19;5098205;27;45744;-70
2023/08/19 09:03:11;;;;;;;;;2.50;2.50;;;;;25.81;60.97;101123.06;5098714;27;45392;-70
2023/08/19 09:05:40;;;;;;;;;4.75;4.75;;;;;26.17;61.62;101166.44;5096688;27;47838;-71
2023/08/19 09:08:09;;;;;;;;;3.00;3.00;;;;;26.19;59.58;101194.28;5098164;27;45335;-71
2023/08/19 09:10:36;;;;;;;;;5.25;5.25;;;;;26.28;60.73;101222.03;5098052;27;45274;-70
2023/08/19 09:13:04;;;;;;;;;5.25;5.25;;;;;26.18;60.69;101168.09;5098388;27;45481;-70
2023/08/19 09:15:31;;;;;;;;;3.00;3.00;;;;;26.23;61.07;101203.69;5097748;27;45871;-71
2023/08/19 09:17:58;;;;;;;;;3.00;3.00;;;;;26.24;60.43;101226.31;5102441;27;45579;-69
2023/08/19 09:20:25;;;;;;;;;4.25;4.00;;;;;26.27;61.18;101245.75;5097643;27;45460;-69
2023/08/19 09:22:51;;;;;;;;;6.50;6.50;;;;;26.21;60.32;101230.31;5097928;27;45448;-70
2023/08/19 09:25:16;;;;;;;;;6.50;4.50;;;;;26.13;60.18;101236.13;5097557;27;46663;-69
2023/08/19 09:27:44;;;;;;;;;3.00;3.00;;;;;26.08;61.08;101260.53;5097771;27;45264;-69
2023/08/19 09:30:14;;;;;;;;;5.25;5.25;;;;;26.01;61.05;101287.03;5098794;27;45485;-69
2023/08/19 09:32:41;;;;;;;;;6.00;6.00;;;;;25.87;60.58;101285.59;5103936;27;45577;-69
2023/08/19 09:35:14;;;;;;;;;3.50;3.50;;;;;25.87;61.22;101270.06;5099437;27;45694;-69
2023/08/19 09:37:40;;;;;;;;;3.00;3.00;;;;;25.89;61.51;101288.91;5080938;27;45433;-69
2023/08/19 09:40:08;;;;;;;;;5.50;5.50;;;;;25.87;62.11;101296.47;5101979;27;45459;-70
2023/08/19 09:42:34;;;;;;;;;5.75;5.25;;;;;25.81;62.12;101303.66;5097750;27;45473;-69
2023/08/19 09:44:59;;;;;;;;;4.00;4.00;;;;;25.73;62.17;101269.44;5097403;27;45648;-69
2023/08/19 09:47:25;;;;;;;;;6.25;6.25;;;;;25.75;62.03;101275.47;5097048;27;45235;-70
2023/08/19 09:49:53;;;;;;;;;3.00;3.00;;;;;25.73;62.29;101272.16;5103919;27;45391;-69
2023/08/19 09:52:19;;;;;;;;;5.25;4.25;;;;;25.66;62.86;101295.91;5113156;27;45611;-69
2023/08/19 09:54:52;;;;;;;;;3.00;3.00;;;;;25.59;63.20;101300.59;5105202;27;47281;-69
2023/08/19 09:57:18;;;;;;;;;5.75;5.75;;;;;25.64;63.57;101327.97;5103816;27;45375;-69
2023/08/19 09:59:43;;;;;;;;;8.25;6.25;;;;;25.58;63.71;101331.59;5118195;27;45361;-69
2023/08/19 10:02:11;;;;;;;;;6.00;6.00;;;;;25.55;63.58;101321.16;5117806;27;45442;-69
2023/08/19 10:04:37;;;;;;;;;6.00;5.00;;;;;25.54;63.47;101314.06;5118101;27;46400;-69
2023/08/19 10:07:04;;;;;;;;;5.00;4.50;;;;;25.47;64.02;101313.31;5117924;27;45427;-69
2023/08/19 10:09:30;;;;;;;;;5.50;5.50;;;;;25.40;64.51;101316.09;5118144;27;45226;-69
2023/08/19 10:11:59;;;;;;;;;7.25;5.75;;;;;25.40;64.91;101307.09;5118154;27;45320;-69
2023/08/19 10:14:31;;;;;;;;;5.25;5.25;;;;;25.00;64.46;101225.94;5132978;27;47470;-70
2023/08/19 10:16:59;;;;;;;;;7.00;5.75;;;;;25.26;64.32;101311.06;5117025;27;45278;-70
2023/08/19 10:19:28;;;;;;;;;7.00;6.25;;;;;25.12;64.31;101303.03;5108638;27;45494;-73
2023/08/19 10:21:57;;;;;;;;;5.25;4.00;;;;;25.13;65.68;101315.59;5111834;27;45415;-69
2023/08/19 10:24:23;;;;;;;;;8.50;6.50;;;;;24.90;65.71;101263.72;5096694;27;46504;-70
2023/08/19 10:26:49;;;;;;;;;7.00;7.00;;;;;25.26;66.58;101316.50;5097025;27;45313;-69
2023/08/19 10:29:15;;;;;;;;;6.00;6.00;;;;;25.26;66.78;101290.13;5097156;27;45580;-70
2023/08/19 10:31:42;;;;;;;;;7.75;7.75;;;;;25.33;66.29;101292.75;5097120;27;45470;-70
2023/08/19 10:34:24;;;;;;;;;5.00;5.00;;;;;25.61;65.96;101342.03;5096955;27;45481;-68
2023/08/19 10:37:09;;;;;;;;;7.25;6.25;;;;;25.60;66.14;101326.75;5096801;27;45345;-69
2023/08/19 10:39:35;;;;;;;;;6.75;6.00;;;;;25.43;65.72;101291.19;5095433;27;45482;-69
2023/08/19 10:42:02;;;;;;;;;4.50;4.50;;;;;25.77;65.52;101336.00;5097213;27;45503;-69
2023/08/19 10:44:31;;;;;;;;;5.75;5.00;;;;;25.57;64.60;101274.66;5095122;27;47465;-69
2023/08/19 10:47:13;;;;;;;;;7.00;6.00;;;;;25.99;64.48;101310.97;5095066;27;46171;-68
2023/08/19 10:49:39;;;;;;;;;5.50;5.50;;;;;26.19;64.27;101310.66;5096921;27;45287;-68
2023/08/19 10:52:05;;;;;;;;;6.50;5.25;;;;;26.49;63.65;101318.81;5095792;27;45596;-69
2023/08/19 10:54:40;;;;;;;;;5.00;5.00;;;;;26.74;61.90;101324.88;5096531;27;46561;-68
2023/08/19 10:57:08;;;;;;;;;4.75;4.75;;;;;26.94;61.14;101319.06;5097457;27;45566;-69
2023/08/19 10:59:34;;;;;;;;;4.50;4.25;;;;;27.03;60.55;101320.41;5116850;27;45478;-69
2023/08/19 11:02:00;;;;;;;;;6.75;6.00;;;;;27.25;59.95;101326.06;5108171;27;45501;-69
2023/08/19 11:04:26;;;;;;;;;4.25;4.25;;;;;27.46;58.82;101332.78;5098232;27;46658;-68
2023/08/19 11:06:53;;;;;;;;;4.75;3.75;;;;;27.61;58.00;101319.41;5100290;27;45253;-68
2023/08/19 11:09:19;;;;;;;;;4.00;4.00;;;;;27.38;56.38;101271.16;5100299;27;45348;-69
2023/08/19 11:11:44;;;;;;;;;3.00;3.00;;;;;27.61;55.33;101318.59;5105251;27;45517;-69
2023/08/19 11:14:20;;;;;;;;;5.75;3.00;;;;;27.67;55.82;101315.75;5099973;27;46051;-69
2023/08/19 11:16:52;;;;;;;;;4.00;4.00;;;;;27.67;54.80;101323.13;5097981;27;45562;-69